Kingsville, Missouri
Current Conditions -  °F | °C
As of 7:35 AM on Friday 28 Nov 2014 (Local Time) from KRCM Reporting Station
Clear Clear  
Wind Chill: -3°   Ceiling: Unl
Heat Index:   Visibility: 10mi
Dew Point: -3°   Wind: 10mph
Humidity: 75%   Direction: 170°S
Pressure: 30.04"   Gusts: NA
Location:  38.74°N, 94.07°W
Report Text: KRCM 281335Z AUTO 17009KT 10SM CLR 01/M03 A3004 RMK AO2
Loading
Personal Weather Stations






























Interactive Weather Map New forecast layout! Learn more

10-Day Weather Forecast

Advertisements
Track Severe Weather on mobile